Time;durP1;ratioP1;P1;durP2;ratioP2;P2;SDS_P1;SDS_P2;PMS_P1;PMS_P2;Temp;Humidity;BMP_temperature;BMP_pressure;BME280_temperature;BME280_humidity;BME280_pressure;Samples;Min_cycle;Max_cycle;Signal;HPM_P1;HPM_P2
2021/10/15 00:02:00;;;;;;;5.00;4.50;;;12.70;99.90;;;;;;5022853;27;20456;-73
2021/10/15 00:04:25;;;;;;;5.50;4.20;;;12.60;99.90;;;;;;5028577;28;20450;-73
2021/10/15 00:06:51;;;;;;;6.13;5.43;;;12.60;99.90;;;;;;5043332;28;20242;-73
2021/10/15 00:09:16;;;;;;;5.70;4.78;;;12.60;99.90;;;;;;5029951;28;20422;-74
2021/10/15 00:11:45;;;;;;;8.30;5.10;;;12.60;99.90;;;;;;5030902;28;20221;-74
2021/10/15 00:14:11;;;;;;;7.50;4.97;;;12.60;99.90;;;;;;5030684;28;20179;-72
2021/10/15 00:16:37;;;;;;;6.87;4.30;;;12.50;99.90;;;;;;5030393;28;20548;-72
2021/10/15 00:19:03;;;;;;;9.00;5.40;;;12.50;99.90;;;;;;5028945;28;20456;-73
2021/10/15 00:21:28;;;;;;;7.53;5.30;;;12.50;99.90;;;;;;5030468;28;20171;-73
2021/10/15 00:23:54;;;;;;;5.80;5.07;;;12.40;99.90;;;;;;5030200;28;20410;-72
2021/10/15 00:26:20;;;;;;;9.27;5.80;;;12.40;99.90;;;;;;5030065;28;20191;-73
2021/10/15 00:28:46;;;;;;;8.07;5.20;;;12.50;99.90;;;;;;5028661;28;20178;-72
2021/10/15 00:31:11;;;;;;;5.77;5.27;;;12.50;99.90;;;;;;5011300;28;20426;-73
2021/10/15 00:33:37;;;;;;;9.73;5.17;;;12.50;99.90;;;;;;5010453;28;20216;-72
2021/10/15 00:36:03;;;;;;;6.53;5.00;;;12.50;99.90;;;;;;5010790;28;20535;-73
2021/10/15 00:38:28;;;;;;;7.93;4.93;;;12.50;99.90;;;;;;5010830;28;20182;-73
2021/10/15 00:40:54;;;;;;;6.17;5.33;;;12.40;99.90;;;;;;5010958;28;20423;-73
2021/10/15 00:43:20;;;;;;;7.03;5.53;;;12.40;99.90;;;;;;5013233;28;20180;-73
2021/10/15 00:45:45;;;;;;;6.40;5.00;;;12.50;99.90;;;;;;5010412;28;20218;-73
2021/10/15 00:48:11;;;;;;;6.47;5.40;;;12.40;99.90;;;;;;5010006;27;20195;-73
2021/10/15 00:50:37;;;;;;;7.90;6.00;;;12.40;99.90;;;;;;5010382;28;20179;-73
2021/10/15 00:53:03;;;;;;;5.47;4.53;;;12.40;99.90;;;;;;5011146;28;20520;-73
2021/10/15 00:55:30;;;;;;;7.33;5.37;;;12.40;99.90;;;;;;5017864;28;20445;-73
2021/10/15 00:57:56;;;;;;;5.33;4.83;;;12.40;99.90;;;;;;5029998;28;20449;-73
2021/10/15 01:00:21;;;;;;;6.93;4.80;;;12.40;99.90;;;;;;5029583;27;20916;-73
2021/10/15 01:02:47;;;;;;;6.40;4.80;;;12.40;99.90;;;;;;5029885;28;20163;-73
2021/10/15 01:05:12;;;;;;;5.53;4.60;;;12.40;99.90;;;;;;5028490;28;20670;-73
2021/10/15 01:07:39;;;;;;;7.67;4.97;;;12.30;99.90;;;;;;5030168;28;20175;-73
2021/10/15 01:10:05;;;;;;;7.90;4.90;;;12.40;99.90;;;;;;5029821;28;20197;-73
2021/10/15 01:12:32;;;;;;;8.57;5.63;;;12.30;99.90;;;;;;5028672;28;20424;-73
2021/10/15 01:14:58;;;;;;;9.10;4.70;;;12.30;99.90;;;;;;5027964;27;20199;-73
2021/10/15 01:17:23;;;;;;;5.33;4.83;;;12.30;99.90;;;;;;5023268;28;20499;-73
2021/10/15 01:19:53;;;;;;;9.63;4.70;;;12.40;99.90;;;;;;5016053;28;20426;-73
2021/10/15 01:22:19;;;;;;;5.43;4.70;;;12.30;99.90;;;;;;5010311;28;20179;-72
2021/10/15 01:24:44;;;;;;;4.40;4.00;;;12.30;99.90;;;;;;5014299;28;20426;-73
2021/10/15 01:27:10;;;;;;;6.23;5.17;;;12.30;99.90;;;;;;5013439;28;20248;-72
2021/10/15 01:29:38;;;;;;;7.70;4.93;;;12.20;99.90;;;;;;5017303;28;20217;-74
2021/10/15 01:32:06;;;;;;;9.50;5.10;;;12.20;99.90;;;;;;5014612;28;20176;-72
2021/10/15 01:34:32;;;;;;;5.87;4.37;;;12.20;99.90;;;;;;5017663;28;20919;-73
2021/10/15 01:36:57;;;;;;;8.30;4.90;;;12.20;99.90;;;;;;5029885;28;21004;-73
2021/10/15 01:39:23;;;;;;;5.30;4.40;;;12.10;99.90;;;;;;5032958;28;20496;-73
2021/10/15 01:41:49;;;;;;;6.77;5.03;;;12.10;99.90;;;;;;5033113;28;20253;-72
2021/10/15 01:44:15;;;;;;;5.60;5.00;;;12.00;99.90;;;;;;5032665;28;20635;-72
2021/10/15 01:46:40;;;;;;;8.23;4.87;;;12.00;99.90;;;;;;5030165;28;20445;-72
2021/10/15 01:49:06;;;;;;;8.90;5.67;;;12.00;99.90;;;;;;5032732;28;20213;-73
2021/10/15 01:51:31;;;;;;;10.03;5.50;;;11.90;99.90;;;;;;5033558;28;20170;-72
2021/10/15 01:53:57;;;;;;;10.23;5.77;;;11.90;99.90;;;;;;5038195;28;20224;-72
2021/10/15 01:56:22;;;;;;;6.30;4.77;;;11.90;99.90;;;;;;5034585;28;20207;-72
2021/10/15 01:58:48;;;;;;;7.90;5.50;;;11.90;99.90;;;;;;5034065;28;20164;-73
2021/10/15 02:01:13;;;;;;;8.10;5.37;;;11.80;99.90;;;;;;5032421;27;20195;-72
2021/10/15 02:03:39;;;;;;;5.27;4.77;;;11.80;99.90;;;;;;5032468;28;20175;-73
2021/10/15 02:06:04;;;;;;;6.47;5.60;;;11.80;99.90;;;;;;5032359;28;20207;-72
2021/10/15 02:08:30;;;;;;;10.17;4.90;;;11.80;99.90;;;;;;5019349;28;20211;-72
2021/10/15 02:10:56;;;;;;;6.30;5.60;;;11.70;99.90;;;;;;5012743;28;20262;-72
2021/10/15 02:13:21;;;;;;;6.10;4.70;;;11.70;99.90;;;;;;5012552;28;20180;-72
2021/10/15 02:15:47;;;;;;;6.78;5.57;;;11.70;99.90;;;;;;5011608;28;20428;-72
2021/10/15 02:18:12;;;;;;;8.87;5.47;;;11.70;99.90;;;;;;5013245;28;20178;-72
2021/10/15 02:20:38;;;;;;;8.80;5.57;;;11.70;99.90;;;;;;5012427;28;20175;-72
2021/10/15 02:23:03;;;;;;;8.53;5.50;;;11.60;99.90;;;;;;5012501;28;20259;-72
2021/10/15 02:25:29;;;;;;;6.70;5.23;;;11.50;99.90;;;;;;5012368;28;20262;-72
2021/10/15 02:27:56;;;;;;;7.10;5.00;;;11.50;99.90;;;;;;5013847;28;20694;-72
2021/10/15 02:30:22;;;;;;;8.93;5.20;;;11.50;99.90;;;;;;5014814;27;20442;-72
2021/10/15 02:32:48;;;;;;;8.27;5.70;;;11.50;99.90;;;;;;5013572;28;20481;-72
2021/10/15 02:35:15;;;;;;;8.80;5.20;;;11.50;99.90;;;;;;5012693;28;20431;-72
2021/10/15 02:37:42;;;;;;;12.60;6.20;;;11.50;99.90;;;;;;5012537;28;20962;-72
2021/10/15 02:40:08;;;;;;;6.93;5.70;;;11.50;99.90;;;;;;5014667;28;20422;-72
2021/10/15 02:42:34;;;;;;;10.50;6.10;;;11.40;99.90;;;;;;5021087;28;20914;-72
2021/10/15 02:45:00;;;;;;;10.50;5.30;;;11.40;99.90;;;;;;5032558;28;20404;-72
2021/10/15 02:47:26;;;;;;;10.13;5.67;;;11.50;99.90;;;;;;5031867;27;20505;-72
2021/10/15 02:49:51;;;;;;;8.67;5.43;;;11.40;99.90;;;;;;5031430;28;20190;-72
2021/10/15 02:52:17;;;;;;;8.60;5.70;;;11.40;99.90;;;;;;5030551;28;20183;-72
2021/10/15 02:54:43;;;;;;;8.57;5.73;;;11.30;99.90;;;;;;5032538;28;20171;-72
2021/10/15 02:57:08;;;;;;;7.73;5.90;;;11.30;99.90;;;;;;5031550;28;20458;-72
2021/10/15 02:59:34;;;;;;;11.70;6.53;;;11.30;99.90;;;;;;5031671;28;20182;-72
2021/10/15 03:02:00;;;;;;;8.23;6.47;;;11.30;99.90;;;;;;5031611;27;20705;-72
2021/10/15 03:04:25;;;;;;;11.30;6.03;;;11.20;99.90;;;;;;5030061;28;20220;-72
2021/10/15 03:06:51;;;;;;;10.10;5.80;;;11.20;99.90;;;;;;5031495;28;20237;-72
2021/10/15 03:09:16;;;;;;;7.43;6.20;;;11.30;99.90;;;;;;5031684;28;20171;-72
2021/10/15 03:11:42;;;;;;;8.00;6.10;;;11.30;99.90;;;;;;5031498;28;20537;-72
2021/10/15 03:14:07;;;;;;;7.23;6.07;;;11.40;99.90;;;;;;5029587;28;20227;-72
2021/10/15 03:16:33;;;;;;;12.90;6.50;;;11.40;99.90;;;;;;5031227;28;20205;-72
2021/10/15 03:18:59;;;;;;;7.20;6.00;;;11.40;99.90;;;;;;5023533;27;20236;-72
2021/10/15 03:21:24;;;;;;;8.87;6.20;;;11.40;99.90;;;;;;5017359;28;20662;-72
2021/10/15 03:23:50;;;;;;;10.23;6.70;;;11.40;99.90;;;;;;5011394;28;20172;-72
2021/10/15 03:26:15;;;;;;;9.70;6.30;;;11.40;99.90;;;;;;5011133;28;20207;-72
2021/10/15 03:28:41;;;;;;;13.17;5.37;;;11.40;99.90;;;;;;5015533;28;20228;-72
2021/10/15 03:31:06;;;;;;;7.40;6.70;;;11.40;99.90;;;;;;5031604;28;20171;-72
2021/10/15 03:33:32;;;;;;;8.53;6.33;;;11.40;99.90;;;;;;5031092;28;20210;-72
2021/10/15 03:35:58;;;;;;;9.50;5.70;;;11.40;99.90;;;;;;5031116;28;20195;-72
2021/10/15 03:38:23;;;;;;;8.63;6.00;;;11.40;99.90;;;;;;5030941;27;20311;-72
2021/10/15 03:40:49;;;;;;;10.60;6.10;;;11.40;99.90;;;;;;5030954;28;20295;-72
2021/10/15 03:43:14;;;;;;;7.73;5.80;;;11.40;99.90;;;;;;5031038;28;20535;-72
2021/10/15 03:45:40;;;;;;;8.40;6.80;;;11.40;99.90;;;;;;5022902;28;20586;-72
2021/10/15 03:48:05;;;;;;;8.50;5.63;;;11.50;99.90;;;;;;5019431;28;20257;-72
2021/10/15 03:50:31;;;;;;;6.77;5.47;;;11.50;99.90;;;;;;5030667;28;20186;-72
2021/10/15 03:52:56;;;;;;;8.27;5.83;;;11.50;99.90;;;;;;5031154;28;20654;-72
2021/10/15 03:55:24;;;;;;;8.60;6.30;;;11.50;99.90;;;;;;5029513;27;20190;-72
2021/10/15 03:57:49;;;;;;;10.33;6.20;;;11.40;99.90;;;;;;5030825;28;20206;-72
2021/10/15 04:00:15;;;;;;;6.73;5.73;;;11.40;99.90;;;;;;5030351;28;20910;-72
2021/10/15 04:02:44;;;;;;;8.80;5.47;;;11.40;99.90;;;;;;5029361;28;20179;-72
2021/10/15 04:05:10;;;;;;;7.57;5.43;;;11.40;99.90;;;;;;5030270;28;20663;-72
2021/10/15 04:07:36;;;;;;;8.83;5.70;;;11.30;99.90;;;;;;5030193;27;20486;-72
2021/10/15 04:10:04;;;;;;;8.03;5.93;;;11.30;99.90;;;;;;5029459;28;20473;-72
2021/10/15 04:12:29;;;;;;;5.77;5.27;;;11.30;99.90;;;;;;5029422;28;20398;-72
2021/10/15 04:14:55;;;;;;;7.43;6.00;;;11.30;99.90;;;;;;5030193;28;20432;-72
2021/10/15 04:17:20;;;;;;;8.60;5.77;;;11.40;99.90;;;;;;5023975;27;20684;-72
2021/10/15 04:19:46;;;;;;;11.10;6.33;;;11.50;99.90;;;;;;5017135;28;20188;-72
2021/10/15 04:22:11;;;;;;;8.37;5.80;;;11.50;99.90;;;;;;5011046;28;20548;-72
2021/10/15 04:24:40;;;;;;;8.07;5.77;;;11.50;99.90;;;;;;5011902;28;20240;-73
2021/10/15 04:27:06;;;;;;;9.07;5.90;;;11.50;99.90;;;;;;5010872;28;20191;-72
2021/10/15 04:29:32;;;;;;;8.27;5.83;;;11.50;99.90;;;;;;5011390;28;20933;-72
2021/10/15 04:31:58;;;;;;;8.53;5.83;;;11.50;99.90;;;;;;5010953;28;20506;-72
2021/10/15 04:34:24;;;;;;;8.57;6.23;;;11.50;99.90;;;;;;5011964;28;20906;-72
2021/10/15 04:36:49;;;;;;;6.90;5.93;;;11.50;99.90;;;;;;5010744;28;20286;-72
2021/10/15 04:39:15;;;;;;;6.13;5.60;;;11.50;99.90;;;;;;5012009;28;20415;-72
2021/10/15 04:41:41;;;;;;;7.20;5.67;;;11.50;99.90;;;;;;5014988;27;20651;-72
2021/10/15 04:44:06;;;;;;;8.70;5.63;;;11.60;99.90;;;;;;5019508;28;20297;-72
2021/10/15 04:46:32;;;;;;;9.77;5.90;;;11.60;99.90;;;;;;5012562;28;20260;-72
2021/10/15 04:48:57;;;;;;;11.33;6.40;;;11.70;99.90;;;;;;5011716;28;20655;-73
2021/10/15 04:51:23;;;;;;;8.57;5.50;;;11.70;99.90;;;;;;5010985;28;20221;-72
2021/10/15 04:53:49;;;;;;;10.83;6.10;;;11.70;99.90;;;;;;5011654;28;20260;-72
2021/10/15 04:56:14;;;;;;;6.77;6.07;;;11.70;99.90;;;;;;5011942;28;20203;-72
2021/10/15 04:58:40;;;;;;;8.13;6.20;;;11.60;99.90;;;;;;5013962;28;20175;-72
2021/10/15 05:01:05;;;;;;;7.40;6.33;;;11.60;99.90;;;;;;5014605;27;20182;-72
2021/10/15 05:03:31;;;;;;;6.57;5.80;;;11.60;99.90;;;;;;5015472;28;20168;-72
2021/10/15 05:05:57;;;;;;;9.27;6.10;;;11.60;99.90;;;;;;5015505;28;20202;-72
2021/10/15 05:08:28;;;;;;;9.60;5.47;;;11.60;99.90;;;;;;5021632;28;20175;-72
2021/10/15 05:10:53;;;;;;;9.33;6.50;;;11.60;99.90;;;;;;5014053;28;20785;-72
2021/10/15 05:13:21;;;;;;;9.33;7.30;;;11.70;99.90;;;;;;5014004;28;20409;-72
2021/10/15 05:15:47;;;;;;;8.03;6.30;;;11.70;99.90;;;;;;5032561;28;20198;-72
2021/10/15 05:18:14;;;;;;;9.10;5.80;;;11.60;99.90;;;;;;5033497;28;20425;-72
2021/10/15 05:20:40;;;;;;;7.80;6.40;;;11.70;99.90;;;;;;5033264;28;20512;-72
2021/10/15 05:23:05;;;;;;;7.23;6.30;;;11.70;99.90;;;;;;5032789;28;20871;-72
2021/10/15 05:25:31;;;;;;;10.07;6.23;;;11.70;99.90;;;;;;5031160;27;20460;-73
2021/10/15 05:27:56;;;;;;;13.17;7.07;;;11.60;99.90;;;;;;5026846;28;20303;-73
2021/10/15 05:30:22;;;;;;;8.13;6.20;;;11.70;99.90;;;;;;5021190;27;20186;-73
2021/10/15 05:32:48;;;;;;;6.57;5.40;;;11.70;99.90;;;;;;5017252;28;20179;-73
2021/10/15 05:35:14;;;;;;;7.33;6.37;;;11.70;99.90;;;;;;5021564;28;20468;-72
2021/10/15 05:37:39;;;;;;;12.87;6.40;;;11.60;99.90;;;;;;5019825;27;20306;-72
2021/10/15 05:40:05;;;;;;;9.73;6.10;;;11.60;99.90;;;;;;5015623;27;20294;-73
2021/10/15 05:42:31;;;;;;;9.07;6.20;;;11.60;99.90;;;;;;5008559;27;22333;-72
2021/10/15 05:44:57;;;;;;;10.32;7.00;;;11.70;99.90;;;;;;5027608;28;20441;-72
2021/10/15 05:47:22;;;;;;;12.33;6.83;;;11.70;99.90;;;;;;5014085;28;20574;-72
2021/10/15 05:49:48;;;;;;;7.23;6.50;;;11.70;99.90;;;;;;5032308;28;20630;-73
2021/10/15 05:52:26;;;;;;;7.10;6.00;;;11.70;99.90;;;;;;5038223;28;20183;-73
2021/10/15 05:54:58;;;;;;;10.60;6.20;;;11.80;99.90;;;;;;5028389;28;20452;-73
2021/10/15 05:59:58;;;;;;;9.00;7.20;;;11.70;99.90;;;;;;5025700;27;20445;-74
2021/10/15 06:02:24;;;;;;;6.40;5.77;;;11.70;99.90;;;;;;5041746;27;20784;-72
2021/10/15 06:15:33;;;;;;;10.43;7.03;;;11.60;99.90;;;;;;5024752;27;20579;-72
2021/10/15 06:17:59;;;;;;;11.70;8.43;;;11.60;99.90;;;;;;5039804;27;20487;-72
2021/10/15 06:20:25;;;;;;;8.73;6.07;;;11.70;99.90;;;;;;5079038;27;20490;-72
2021/10/15 06:22:50;;;;;;;8.07;6.20;;;11.70;99.90;;;;;;5032147;28;20498;-72
2021/10/15 06:25:16;;;;;;;7.60;6.60;;;11.70;99.90;;;;;;5019965;27;20215;-72
2021/10/15 06:27:42;;;;;;;13.93;7.13;;;11.70;99.90;;;;;;5010797;27;20458;-72
2021/10/15 06:30:08;;;;;;;8.47;6.57;;;11.70;99.90;;;;;;5026108;27;20304;-72
2021/10/15 06:32:34;;;;;;;11.33;7.37;;;11.70;99.90;;;;;;5026623;28;20516;-72
2021/10/15 06:34:59;;;;;;;8.60;6.30;;;11.70;99.90;;;;;;5024626;27;21345;-73
2021/10/15 06:37:25;;;;;;;12.63;7.00;;;11.70;99.90;;;;;;5010631;28;20339;-72
2021/10/15 06:39:53;;;;;;;9.10;7.10;;;11.80;99.90;;;;;;5017914;28;20277;-73
2021/10/15 06:42:19;;;;;;;8.83;6.80;;;11.80;99.90;;;;;;5036070;27;20627;-73
2021/10/15 06:44:44;;;;;;;8.70;6.43;;;11.80;99.90;;;;;;5029050;28;20533;-73
2021/10/15 06:47:10;;;;;;;12.37;7.20;;;11.80;99.90;;;;;;5022797;27;20720;-72
2021/10/15 06:49:36;;;;;;;8.93;6.77;;;11.80;99.90;;;;;;5017588;28;20533;-72
2021/10/15 06:52:02;;;;;;;11.30;6.90;;;11.80;99.90;;;;;;5024952;27;21009;-71
2021/10/15 06:54:27;;;;;;;9.87;7.00;;;11.80;99.90;;;;;;5009957;28;20600;-72
2021/10/15 06:56:53;;;;;;;9.00;6.47;;;11.70;99.90;;;;;;5008513;27;20228;-72
2021/10/15 06:59:18;;;;;;;10.40;6.57;;;11.80;99.90;;;;;;5009219;28;20192;-72
2021/10/15 07:01:45;;;;;;;6.87;6.10;;;11.80;99.90;;;;;;5005117;27;20214;-72
2021/10/15 07:04:11;;;;;;;10.50;6.30;;;11.80;99.90;;;;;;5010925;28;20665;-72
2021/10/15 07:06:36;;;;;;;10.50;6.83;;;11.80;99.90;;;;;;5009085;28;20431;-72
2021/10/15 07:09:03;;;;;;;12.27;6.87;;;11.80;99.90;;;;;;5011588;28;20180;-73
2021/10/15 07:11:30;;;;;;;11.07;6.87;;;11.90;99.90;;;;;;5011448;28;20168;-72
2021/10/15 07:13:56;;;;;;;10.70;7.43;;;11.90;99.90;;;;;;5012732;28;20411;-73
2021/10/15 07:16:22;;;;;;;8.73;6.63;;;12.00;99.90;;;;;;5010850;28;20473;-73
2021/10/15 07:18:47;;;;;;;11.57;7.13;;;12.00;99.90;;;;;;5011477;28;20415;-73
2021/10/15 07:21:13;;;;;;;9.00;6.20;;;12.00;99.90;;;;;;5010698;28;20179;-73
2021/10/15 07:23:39;;;;;;;7.30;6.20;;;12.00;99.90;;;;;;5011299;28;20168;-73
2021/10/15 07:26:04;;;;;;;7.87;6.47;;;12.00;99.90;;;;;;5035635;28;20194;-72
2021/10/15 07:28:30;;;;;;;8.03;6.43;;;12.00;99.90;;;;;;5048407;28;20670;-72
2021/10/15 07:30:57;;;;;;;10.23;7.10;;;12.10;99.90;;;;;;5036542;28;20529;-72
2021/10/15 07:33:23;;;;;;;9.30;6.67;;;12.10;99.90;;;;;;5019136;27;20330;-72
2021/10/15 07:35:49;;;;;;;12.00;6.63;;;12.20;99.90;;;;;;5025430;28;20650;-73
2021/10/15 07:38:15;;;;;;;8.40;6.40;;;12.20;99.90;;;;;;5020235;28;20210;-72
2021/10/15 07:40:40;;;;;;;9.87;6.67;;;12.20;99.90;;;;;;5026875;28;20420;-72
2021/10/15 07:43:06;;;;;;;7.10;6.00;;;12.20;99.90;;;;;;5027204;28;20266;-72
2021/10/15 07:45:32;;;;;;;8.80;6.20;;;12.20;99.90;;;;;;5024375;28;20199;-73
2021/10/15 07:47:58;;;;;;;10.63;6.73;;;12.20;99.90;;;;;;5043062;27;20200;-72
2021/10/15 07:50:23;;;;;;;7.77;6.17;;;12.20;99.90;;;;;;5021225;28;20918;-73
2021/10/15 07:52:49;;;;;;;9.10;5.77;;;12.20;99.90;;;;;;5015321;28;20957;-73
2021/10/15 07:55:15;;;;;;;7.77;6.80;;;12.30;99.90;;;;;;5025079;28;20274;-74
2021/10/15 07:57:40;;;;;;;7.80;6.40;;;12.30;99.90;;;;;;5023845;27;20223;-73
2021/10/15 08:00:08;;;;;;;9.73;6.90;;;12.30;99.90;;;;;;5025344;28;20539;-73
2021/10/15 08:02:34;;;;;;;8.27;7.10;;;12.30;99.90;;;;;;5011058;28;20458;-73
2021/10/15 08:05:00;;;;;;;11.80;6.43;;;12.30;99.90;;;;;;5012388;28;20283;-73
2021/10/15 08:07:25;;;;;;;7.53;6.17;;;12.30;99.90;;;;;;5019595;27;20183;-74
2021/10/15 08:09:51;;;;;;;9.97;7.23;;;12.40;99.90;;;;;;5015293;28;20179;-73
2021/10/15 08:12:17;;;;;;;7.60;6.30;;;12.30;99.90;;;;;;5014989;28;20215;-73
2021/10/15 08:14:42;;;;;;;10.03;7.10;;;12.30;99.90;;;;;;5018611;28;20190;-73
2021/10/15 08:17:08;;;;;;;14.90;8.70;;;12.30;99.90;;;;;;5012670;28;20214;-73
2021/10/15 08:19:34;;;;;;;7.57;6.77;;;12.30;99.90;;;;;;5011966;27;20205;-73
2021/10/15 08:21:59;;;;;;;11.03;7.00;;;12.30;99.90;;;;;;5014780;28;20418;-73
2021/10/15 08:24:25;;;;;;;9.67;7.27;;;12.30;99.90;;;;;;5022668;28;20202;-73
2021/10/15 08:26:51;;;;;;;7.83;7.03;;;12.30;99.90;;;;;;5027707;28;20914;-73
2021/10/15 08:29:18;;;;;;;11.40;6.80;;;12.30;99.90;;;;;;5015986;27;20597;-73
2021/10/15 08:31:43;;;;;;;9.03;7.20;;;12.40;99.90;;;;;;5022740;28;20452;-73
2021/10/15 08:34:10;;;;;;;10.67;7.60;;;12.40;99.90;;;;;;5025354;28;20825;-74
2021/10/15 08:36:38;;;;;;;8.47;7.63;;;12.30;99.90;;;;;;5019189;28;20227;-73
2021/10/15 08:39:05;;;;;;;11.97;6.83;;;12.40;99.90;;;;;;5025532;27;20488;-73
2021/10/15 08:41:31;;;;;;;9.53;7.90;;;12.40;99.90;;;;;;5020820;28;20424;-73
2021/10/15 08:43:57;;;;;;;9.40;7.60;;;12.40;99.90;;;;;;5015320;28;20430;-73
2021/10/15 08:46:23;;;;;;;10.67;7.90;;;12.40;99.90;;;;;;5030293;28;20202;-72
2021/10/15 08:48:49;;;;;;;10.10;7.67;;;12.50;99.90;;;;;;5031737;27;20455;-73
2021/10/15 08:51:15;;;;;;;11.07;7.27;;;12.50;99.90;;;;;;5030133;28;20485;-73
2021/10/15 08:53:55;;;;;;;7.93;6.47;;;12.50;99.90;;;;;;5029612;28;20833;-73
2021/10/15 08:56:23;;;;;;;11.40;8.90;;;12.60;99.90;;;;;;5016600;28;20258;-73
2021/10/15 08:58:57;;;;;;;9.23;7.43;;;12.50;99.90;;;;;;5030480;28;20910;-73
2021/10/15 09:01:27;;;;;;;9.63;7.87;;;12.50;99.90;;;;;;5030820;28;20421;-73
2021/10/15 09:04:03;;;;;;;10.13;7.30;;;12.50;99.90;;;;;;5028708;28;20786;-73
2021/10/15 09:06:40;;;;;;;12.23;7.37;;;12.50;99.90;;;;;;5030348;28;20513;-73
2021/10/15 09:09:07;;;;;;;13.57;8.13;;;12.50;99.90;;;;;;5031213;28;20417;-73
2021/10/15 09:11:37;;;;;;;12.20;8.47;;;12.60;99.90;;;;;;5029700;28;20417;-72
2021/10/15 09:14:05;;;;;;;12.38;8.68;;;12.70;99.90;;;;;;5026905;28;20490;-73
2021/10/15 09:17:01;;;;;;;13.43;9.53;;;12.70;99.90;;;;;;5029716;28;20203;-72
2021/10/15 09:19:40;;;;;;;13.73;8.00;;;12.70;99.90;;;;;;5029938;28;20416;-72
2021/10/15 09:22:16;;;;;;;11.37;8.43;;;12.70;99.90;;;;;;5030414;28;20924;-72
2021/10/15 09:25:05;;;;;;;13.80;10.00;;;12.60;99.90;;;;;;5026592;28;20523;-72
2021/10/15 09:27:38;;;;;;;10.70;8.97;;;12.60;99.90;;;;;;5025152;28;20883;-73
2021/10/15 09:30:08;;;;;;;15.27;11.70;;;12.50;99.90;;;;;;5013811;28;20407;-73
2021/10/15 09:32:37;;;;;;;12.97;9.40;;;12.50;99.90;;;;;;5030002;28;21218;-72
2021/10/15 09:35:03;;;;;;;15.47;9.80;;;12.50;99.90;;;;;;5028423;28;20779;-73
2021/10/15 09:37:32;;;;;;;13.30;10.20;;;12.50;99.90;;;;;;5022786;27;20485;-73
2021/10/15 09:40:13;;;;;;;24.57;10.40;;;12.50;99.90;;;;;;5023130;28;20436;-73
2021/10/15 09:42:41;;;;;;;13.90;10.80;;;12.40;99.90;;;;;;5029236;28;20414;-73
2021/10/15 09:45:18;;;;;;;11.77;10.57;;;12.30;99.90;;;;;;5037301;27;20534;-73
2021/10/15 09:47:51;;;;;;;14.53;12.67;;;12.20;99.90;;;;;;5025453;27;20441;-72
2021/10/15 09:50:19;;;;;;;15.50;11.00;;;12.20;99.90;;;;;;5025143;28;20837;-73
2021/10/15 09:52:55;;;;;;;14.20;10.93;;;12.20;99.90;;;;;;5034742;28;20504;-72
2021/10/15 09:55:31;;;;;;;13.80;11.23;;;12.20;99.90;;;;;;5045447;28;20531;-73
2021/10/15 09:58:12;;;;;;;11.23;9.90;;;12.30;99.90;;;;;;5029732;28;20454;-73
2021/10/15 10:00:39;;;;;;;12.63;10.90;;;12.40;99.90;;;;;;5017839;27;20426;-73
2021/10/15 10:03:05;;;;;;;14.27;10.73;;;12.50;99.90;;;;;;5022033;28;20439;-73
2021/10/15 10:05:31;;;;;;;14.30;12.80;;;12.60;99.90;;;;;;5030603;28;20547;-73
2021/10/15 10:07:57;;;;;;;15.50;12.80;;;12.60;99.90;;;;;;5023167;28;20514;-73
2021/10/15 10:10:26;;;;;;;13.53;12.13;;;12.60;99.90;;;;;;5033680;28;20197;-73
2021/10/15 10:12:53;;;;;;;14.13;12.73;;;12.70;99.90;;;;;;5041906;28;20410;-73
2021/10/15 10:15:21;;;;;;;16.20;13.50;;;12.50;99.90;;;;;;5031116;28;20454;-73
2021/10/15 10:18:02;;;;;;;13.87;12.43;;;12.50;99.90;;;;;;5024530;27;20527;-73
2021/10/15 10:20:31;;;;;;;15.97;14.30;;;12.40;99.90;;;;;;5016900;28;20782;-73
2021/10/15 10:23:26;;;;;;;16.30;14.55;;;12.50;99.90;;;;;;5029628;28;20417;-73
2021/10/15 10:26:00;;;;;;;17.83;13.90;;;12.40;99.90;;;;;;5035995;28;20205;-73
2021/10/15 10:28:27;;;;;;;16.73;15.13;;;12.50;99.90;;;;;;5025891;28;20485;-73
2021/10/15 10:30:55;;;;;;;17.30;15.43;;;12.50;99.90;;;;;;5019453;28;20430;-73
2021/10/15 10:33:22;;;;;;;16.50;14.80;;;12.60;99.90;;;;;;5042782;28;21166;-73
2021/10/15 10:35:50;;;;;;;17.33;15.47;;;12.60;99.90;;;;;;5032685;28;20783;-73
2021/10/15 10:38:25;;;;;;;17.97;16.27;;;12.70;99.90;;;;;;5022882;28;20463;-73
2021/10/15 10:41:00;;;;;;;17.87;16.10;;;12.70;99.90;;;;;;5018338;28;20777;-73
2021/10/15 10:43:27;;;;;;;14.90;13.50;;;12.60;99.90;;;;;;5012817;28;20425;-73
2021/10/15 10:46:12;;;;;;;13.10;11.90;;;12.70;99.90;;;;;;5012253;28;20943;-73
2021/10/15 10:48:47;;;;;;;9.97;9.00;;;12.90;99.90;;;;;;5042160;27;20429;-72
2021/10/15 10:51:24;;;;;;;9.10;8.23;;;13.00;99.90;;;;;;5018946;28;20990;-72
2021/10/15 10:54:03;;;;;;;6.20;5.60;;;12.90;99.90;;;;;;5024229;28;20790;-73
2021/10/15 10:56:46;;;;;;;6.80;5.90;;;12.80;99.90;;;;;;5030213;28;20469;-72
2021/10/15 10:59:21;;;;;;;4.87;4.47;;;12.80;99.90;;;;;;5019777;28;20430;-73
2021/10/15 11:02:01;;;;;;;5.00;4.60;;;12.80;99.90;;;;;;5025569;28;21011;-73
2021/10/15 11:04:34;;;;;;;6.07;4.43;;;12.90;99.90;;;;;;5025324;28;20438;-73
2021/10/15 11:07:05;;;;;;;4.43;4.03;;;12.90;99.90;;;;;;5020371;28;20595;-73
2021/10/15 11:09:36;;;;;;;3.60;3.27;;;13.00;99.90;;;;;;5021930;27;20448;-73
2021/10/15 11:12:02;;;;;;;4.30;3.10;;;12.90;99.90;;;;;;5048212;28;20450;-73
2021/10/15 11:14:56;;;;;;;2.90;2.60;;;13.00;99.90;;;;;;5051992;28;20428;-72
2021/10/15 11:17:26;;;;;;;2.73;2.50;;;13.00;99.90;;;;;;5030316;28;20472;-73
2021/10/15 11:20:18;;;;;;;3.43;2.33;;;12.90;99.90;;;;;;5027622;28;20433;-73
2021/10/15 11:22:52;;;;;;;3.30;2.60;;;13.00;99.90;;;;;;5028733;28;20416;-73
2021/10/15 11:25:19;;;;;;;2.33;2.17;;;13.20;99.90;;;;;;5027802;27;20821;-73
2021/10/15 11:27:52;;;;;;;3.50;2.37;;;13.30;99.90;;;;;;5027996;28;20442;-73
2021/10/15 11:30:19;;;;;;;4.93;2.93;;;13.40;99.90;;;;;;5024775;28;20456;-73
2021/10/15 11:32:47;;;;;;;2.77;2.30;;;13.50;99.90;;;;;;5015560;28;20438;-73
2021/10/15 11:35:23;;;;;;;2.30;2.07;;;13.50;99.90;;;;;;5016108;28;20524;-72
2021/10/15 11:37:50;;;;;;;3.23;1.93;;;13.60;99.90;;;;;;5035369;27;20493;-74
2021/10/15 11:40:33;;;;;;;3.47;2.30;;;13.70;99.90;;;;;;5016184;28;20426;-72
2021/10/15 11:43:12;;;;;;;3.90;1.90;;;13.80;99.90;;;;;;5024572;28;20912;-72
2021/10/15 11:45:49;;;;;;;2.10;1.90;;;13.70;99.90;;;;;;5019046;27;20489;-72
2021/10/15 11:48:30;;;;;;;2.00;1.90;;;13.70;99.90;;;;;;5019853;27;20460;-75
2021/10/15 11:50:58;;;;;;;1.90;1.80;;;13.70;99.90;;;;;;5012379;28;20445;-73
2021/10/15 11:53:26;;;;;;;2.57;2.20;;;13.70;99.90;;;;;;5021366;27;20436;-73
2021/10/15 11:55:53;;;;;;;2.20;2.00;;;13.70;99.90;;;;;;5019429;28;20467;-73
2021/10/15 11:58:33;;;;;;;2.43;1.60;;;13.80;99.90;;;;;;5011347;27;20558;-73
2021/10/15 12:01:14;;;;;;;2.40;1.80;;;13.70;99.90;;;;;;5028467;28;20479;-73
2021/10/15 12:03:50;;;;;;;1.83;1.73;;;13.70;99.90;;;;;;5022341;28;20455;-74
2021/10/15 12:06:24;;;;;;;2.53;1.80;;;13.80;99.90;;;;;;5020257;28;20514;-73
2021/10/15 12:08:56;;;;;;;2.37;1.87;;;13.80;99.90;;;;;;5019451;27;20467;-74
2021/10/15 12:11:41;;;;;;;2.03;1.83;;;14.00;99.90;;;;;;5015072;28;20491;-72
2021/10/15 12:14:28;;;;;;;1.87;1.77;;;14.00;99.90;;;;;;5044721;28;20820;-74
2021/10/15 12:17:03;;;;;;;2.30;1.93;;;14.10;99.90;;;;;;5018791;28;20835;-74
2021/10/15 12:19:33;;;;;;;7.77;2.77;;;14.10;99.90;;;;;;5020657;27;20938;-74
2021/10/15 12:22:20;;;;;;;3.40;2.40;;;14.10;99.90;;;;;;5026454;28;20428;-74
2021/10/15 12:24:48;;;;;;;3.90;2.27;;;14.20;99.90;;;;;;5016572;27;20454;-74
2021/10/15 12:27:15;;;;;;;3.07;2.50;;;14.20;99.90;;;;;;5030152;28;20464;-73
2021/10/15 12:29:50;;;;;;;3.40;2.63;;;14.10;99.90;;;;;;5010879;27;20470;-73
2021/10/15 12:32:27;;;;;;;3.40;2.70;;;14.00;99.90;;;;;;5019578;27;20972;-74
2021/10/15 12:34:54;;;;;;;3.90;3.50;;;14.00;99.90;;;;;;5038057;27;20472;-74
2021/10/15 12:37:32;;;;;;;4.13;3.10;;;13.90;99.90;;;;;;5024450;28;20470;-73
2021/10/15 12:40:16;;;;;;;3.40;3.10;;;13.90;99.90;;;;;;5019816;27;20465;-73
2021/10/15 12:42:56;;;;;;;4.17;3.87;;;14.00;99.90;;;;;;5022927;27;20441;-74
2021/10/15 12:45:27;;;;;;;6.10;3.23;;;14.10;99.90;;;;;;5012349;28;20430;-73
2021/10/15 12:48:08;;;;;;;5.37;3.43;;;14.10;99.90;;;;;;5024256;28;20437;-74
2021/10/15 12:50:42;;;;;;;3.77;3.47;;;14.20;99.90;;;;;;5033658;28;20457;-73
2021/10/15 12:53:18;;;;;;;2.87;2.67;;;14.10;99.90;;;;;;5020474;27;20794;-73
2021/10/15 12:55:58;;;;;;;3.80;2.70;;;14.00;99.90;;;;;;5016698;28;20543;-74
2021/10/15 12:58:26;;;;;;;5.73;3.10;;;14.00;99.90;;;;;;5012169;28;20488;-73
2021/10/15 13:00:56;;;;;;;4.00;2.33;;;14.00;99.90;;;;;;5035426;28;20425;-73
2021/10/15 13:03:23;;;;;;;3.10;2.20;;;14.00;99.90;;;;;;5029325;28;20467;-74